createdAt,value
2022-10-20T00:02:16.545Z,99208.44
2022-10-20T00:04:43.051Z,99211.63
2022-10-20T00:07:11.330Z,99210.70
2022-10-20T00:09:37.971Z,99213.56
2022-10-20T00:12:05.025Z,99211.66
2022-10-20T00:14:31.667Z,99214.88
2022-10-20T00:16:58.410Z,99219.34
2022-10-20T00:19:24.945Z,99211.73
2022-10-20T00:21:51.588Z,99215.66
2022-10-20T00:24:18.125Z,99214.94
2022-10-20T00:26:44.533Z,99215.61
2022-10-20T00:29:11.045Z,99220.91
2022-10-20T00:31:37.551Z,99224.06
2022-10-20T00:34:04.081Z,99226.48
2022-10-20T00:36:30.827Z,99226.68
2022-10-20T00:39:02.003Z,99227.39
2022-10-20T00:41:29.021Z,99229.30
2022-10-20T00:43:58.652Z,99226.55
2022-10-20T00:46:40.444Z,99226.08
2022-10-20T00:49:20.221Z,99224.05
2022-10-20T00:51:47.296Z,99226.11
2022-10-20T00:54:18.082Z,99227.67
2022-10-20T00:56:48.552Z,99226.77
2022-10-20T00:59:19.751Z,99225.54
2022-10-20T01:01:46.658Z,99218.13
2022-10-20T01:04:14.229Z,99217.05
2022-10-20T01:06:41.117Z,99221.70
2022-10-20T01:09:08.467Z,99214.99
2022-10-20T01:12:00.107Z,99217.65
2022-10-20T01:14:32.457Z,99220.36
2022-10-20T01:17:04.966Z,99224.63
2022-10-20T01:20:09.410Z,99220.43
2022-10-20T01:23:04.178Z,99219.08
2022-10-20T01:25:46.582Z,99221.05
2022-10-20T01:28:52.147Z,99225.23
2022-10-20T01:31:50.761Z,99223.55
2022-10-20T01:34:41.771Z,99222.50
2022-10-20T01:37:34.485Z,99224.29
2022-10-20T01:40:32.132Z,99219.93
2022-10-20T01:43:04.275Z,99222.09
2022-10-20T01:45:34.405Z,99221.51
2022-10-20T01:48:05.427Z,99225.73
2022-10-20T01:50:35.491Z,99224.04
2022-10-20T01:53:02.703Z,99228.00
2022-10-20T01:55:30.574Z,99230.19
2022-10-20T01:58:16.056Z,99228.97
2022-10-20T02:00:43.574Z,99228.94
2022-10-20T02:03:25.267Z,99225.79
2022-10-20T02:06:06.705Z,99227.88
2022-10-20T02:08:42.291Z,99222.59
2022-10-20T02:11:18.833Z,99220.80
2022-10-20T02:13:46.192Z,99219.20
2022-10-20T02:16:19.593Z,99212.51
2022-10-20T02:18:47.541Z,99216.69
2022-10-20T02:21:15.950Z,99218.65
2022-10-20T02:23:45.526Z,99214.76
2022-10-20T02:26:15.352Z,99221.73
2022-10-20T02:28:47.662Z,99223.66
2022-10-20T02:31:14.503Z,99221.12
2022-10-20T02:33:44.218Z,99223.52
2022-10-20T02:36:16.291Z,99225.59
2022-10-20T02:38:43.031Z,99229.68
2022-10-20T02:41:09.557Z,99227.70
2022-10-20T02:43:36.107Z,99228.96
2022-10-20T02:46:02.725Z,99226.34
2022-10-20T02:48:29.492Z,99225.45
2022-10-20T02:50:56.034Z,99223.21
2022-10-20T02:53:22.471Z,99230.08
2022-10-20T02:55:49.013Z,99232.80
2022-10-20T02:58:15.440Z,99232.70
2022-10-20T03:00:42.057Z,99233.95
2022-10-20T03:03:08.637Z,99236.19
2022-10-20T03:05:39.470Z,99240.55
2022-10-20T03:08:06.145Z,99239.66
2022-10-20T03:10:32.651Z,99240.07
2022-10-20T03:12:59.108Z,99242.48
2022-10-20T03:15:25.625Z,99244.40
2022-10-20T03:17:52.267Z,99246.60
2022-10-20T03:20:18.699Z,99249.52
2022-10-20T03:22:45.140Z,99253.08
2022-10-20T03:25:11.678Z,99256.98
2022-10-20T03:27:38.520Z,99258.83
2022-10-20T03:30:05.816Z,99262.91
2022-10-20T03:32:32.725Z,99258.84
2022-10-20T03:34:59.270Z,99262.84
2022-10-20T03:37:25.701Z,99261.17
2022-10-20T03:39:52.346Z,99263.45
2022-10-20T03:42:18.841Z,99266.98
2022-10-20T03:44:45.432Z,99262.97
2022-10-20T03:47:13.444Z,99269.77
2022-10-20T03:49:40.600Z,99273.08
2022-10-20T03:52:07.193Z,99277.08
2022-10-20T03:54:36.462Z,99275.73
2022-10-20T03:57:06.861Z,99277.04
2022-10-20T03:59:34.610Z,99276.52
2022-10-20T04:02:01.204Z,99279.80
2022-10-20T04:04:27.886Z,99284.45
2022-10-20T04:06:54.320Z,99281.86
2022-10-20T04:09:21.032Z,99278.92
2022-10-20T04:11:47.499Z,99278.33
2022-10-20T04:14:13.938Z,99278.76
2022-10-20T04:16:40.477Z,99282.45
2022-10-20T04:19:06.887Z,99282.36
2022-10-20T04:21:33.464Z,99285.88
2022-10-20T04:23:59.982Z,99283.41
2022-10-20T04:26:26.431Z,99288.93
2022-10-20T04:28:52.864Z,99287.25
2022-10-20T04:31:19.298Z,99284.57
2022-10-20T04:33:45.745Z,99284.08
2022-10-20T04:36:12.795Z,99289.42
2022-10-20T04:38:39.335Z,99287.70
2022-10-20T04:41:05.876Z,99285.67
2022-10-20T04:43:33.666Z,99284.52
2022-10-20T04:46:07.977Z,99285.24
2022-10-20T04:48:36.461Z,99287.34
2022-10-20T04:51:09.885Z,99286.86
2022-10-20T04:53:36.996Z,99290.14
2022-10-20T04:56:05.801Z,99288.65
2022-10-20T04:58:33.498Z,99288.19
2022-10-20T05:01:07.976Z,99293.54
2022-10-20T05:03:36.105Z,99293.24
2022-10-20T05:06:16.155Z,99300.45
2022-10-20T05:08:45.655Z,99300.09
2022-10-20T05:11:13.299Z,99296.64
2022-10-20T05:13:40.063Z,99299.73
2022-10-20T05:16:07.287Z,99304.02
2022-10-20T05:18:34.652Z,99304.56
2022-10-20T05:21:08.923Z,99310.23
2022-10-20T05:23:36.841Z,99314.70
2022-10-20T05:26:04.969Z,99318.98
2022-10-20T05:28:32.598Z,99317.30
2022-10-20T05:31:07.666Z,99322.98
2022-10-20T05:33:35.117Z,99322.65
2022-10-20T05:36:08.132Z,99328.48
2022-10-20T05:38:34.572Z,99329.85
2022-10-20T05:41:15.202Z,99331.90
2022-10-20T05:43:41.943Z,99331.54
2022-10-20T05:46:09.826Z,99334.26
2022-10-20T05:48:39.481Z,99343.81
2022-10-20T05:51:19.583Z,99344.48
2022-10-20T05:53:47.106Z,99351.81
2022-10-20T05:56:18.132Z,99356.54
2022-10-20T05:58:45.354Z,99355.52
2022-10-20T06:01:14.682Z,99356.44
2022-10-20T06:03:41.196Z,99354.84
2022-10-20T06:06:07.735Z,99352.49
2022-10-20T06:08:34.732Z,99358.09
2022-10-20T06:11:06.168Z,99359.10
2022-10-20T06:13:32.977Z,99359.04
2022-10-20T06:16:04.961Z,99362.63
2022-10-20T06:18:32.829Z,99363.36
2022-10-20T06:21:03.895Z,99358.40
2022-10-20T06:23:30.416Z,99361.14
2022-10-20T06:26:02.702Z,99366.16
2022-10-20T06:28:31.136Z,99368.02
2022-10-20T06:30:57.717Z,99369.80
2022-10-20T06:33:24.871Z,99375.73
2022-10-20T06:35:51.379Z,99374.26
2022-10-20T06:38:17.952Z,99374.58
2022-10-20T06:40:44.354Z,99371.77
2022-10-20T06:43:10.785Z,99370.83
2022-10-20T06:45:37.265Z,99371.23
2022-10-20T06:48:04.259Z,99372.08
2022-10-20T06:50:30.719Z,99374.89
2022-10-20T06:52:57.130Z,99372.98
2022-10-20T06:55:23.574Z,99372.25
2022-10-20T06:57:50.175Z,99377.39
2022-10-20T07:00:16.868Z,99372.60
2022-10-20T07:02:43.462Z,99376.03
2022-10-20T07:05:10.007Z,99373.98
2022-10-20T07:10:08.716Z,99372.39
2022-10-20T07:12:35.411Z,99367.86
2022-10-20T07:15:02.047Z,99367.26
2022-10-20T07:17:28.646Z,99367.42
2022-10-20T07:19:55.186Z,99369.17
2022-10-20T07:22:21.736Z,99369.97
2022-10-20T07:24:48.203Z,99373.76
2022-10-20T07:27:14.682Z,99372.02
2022-10-20T07:29:41.143Z,99374.77
2022-10-20T07:32:07.577Z,99377.20
2022-10-20T07:34:34.049Z,99380.55
2022-10-20T07:37:00.531Z,99377.09
2022-10-20T07:39:27.620Z,99378.18
2022-10-20T07:41:54.449Z,99373.86
2022-10-20T07:44:21.005Z,99371.46
2022-10-20T07:46:47.542Z,99366.53
2022-10-20T07:52:00.692Z,99363.00
2022-10-20T07:54:27.149Z,99359.47
2022-10-20T07:56:53.625Z,99362.67
2022-10-20T07:59:20.237Z,99363.32
2022-10-20T08:01:47.479Z,99361.54
2022-10-20T08:04:16.257Z,99360.84
2022-10-20T08:06:42.798Z,99361.29
2022-10-20T08:09:09.348Z,99358.43
2022-10-20T08:11:36.196Z,99352.85
2022-10-20T08:14:02.941Z,99357.77
2022-10-20T08:16:32.247Z,99354.93
2022-10-20T08:21:41.710Z,99348.77
2022-10-20T08:24:08.672Z,99347.14
2022-10-20T08:26:35.074Z,99339.41
2022-10-20T08:29:01.638Z,99340.15
2022-10-20T08:31:28.178Z,99333.84
2022-10-20T08:33:54.615Z,99332.63
2022-10-20T08:36:21.330Z,99334.70
2022-10-20T08:38:48.744Z,99339.70
2022-10-20T08:41:23.545Z,99334.30
2022-10-20T08:43:52.938Z,99337.17
2022-10-20T08:46:24.838Z,99333.64
2022-10-20T08:48:51.387Z,99333.94
2022-10-20T08:51:24.261Z,99332.44
2022-10-20T08:53:55.423Z,99333.37
2022-10-20T08:56:25.297Z,99329.13
2022-10-20T08:58:52.259Z,99329.48
2022-10-20T09:01:22.305Z,99334.06
2022-10-20T09:04:03.068Z,99338.02
2022-10-20T09:06:29.610Z,99340.30
2022-10-20T09:08:57.570Z,99335.65
2022-10-20T09:11:30.835Z,99335.61
2022-10-20T09:13:57.524Z,99331.06
2022-10-20T09:16:40.569Z,99332.23
2022-10-20T09:19:20.406Z,99332.63
2022-10-20T09:21:54.758Z,99332.41
2022-10-20T09:24:22.874Z,99332.13
2022-10-20T09:26:59.479Z,99329.48
2022-10-20T09:29:38.281Z,99332.79
2022-10-20T09:32:44.963Z,99335.39
2022-10-20T09:35:23.113Z,99337.48
2022-10-20T09:37:54.804Z,99336.53
2022-10-20T09:40:23.146Z,99344.17
2022-10-20T09:43:08.281Z,99340.45
2022-10-20T09:45:35.773Z,99342.48
2022-10-20T09:48:08.155Z,99339.16
2022-10-20T09:50:39.403Z,99339.16
2022-10-20T09:53:15.778Z,99332.54
2022-10-20T09:55:47.645Z,99323.73
2022-10-20T09:58:30.277Z,99323.98
2022-10-20T10:01:01.679Z,99320.20
2022-10-20T10:03:29.065Z,99319.24
2022-10-20T10:06:00.629Z,99315.77
2022-10-20T10:08:40.682Z,99315.48
2022-10-20T10:11:16.382Z,99314.64
2022-10-20T10:13:45.330Z,99311.02
2022-10-20T10:16:14.556Z,99307.98
2022-10-20T10:18:45.434Z,99309.14
2022-10-20T10:21:16.213Z,99301.92
2022-10-20T10:24:00.570Z,99295.91
2022-10-20T10:26:51.893Z,99292.84
2022-10-20T10:29:25.204Z,99289.27
2022-10-20T10:32:13.793Z,99291.13
2022-10-20T10:35:04.273Z,99286.02
2022-10-20T10:37:34.744Z,99278.77
2022-10-20T10:40:03.267Z,99276.91
2022-10-20T10:42:45.782Z,99276.88
2022-10-20T10:45:41.604Z,99275.09
2022-10-20T10:48:42.756Z,99272.04
2022-10-20T10:51:38.386Z,99270.72
2022-10-20T10:54:31.293Z,99269.59
2022-10-20T10:57:06.084Z,99269.61
2022-10-20T10:59:42.688Z,99267.30
2022-10-20T11:02:24.328Z,99270.23
2022-10-20T11:05:18.876Z,99259.73
2022-10-20T11:08:09.343Z,99261.41
2022-10-20T11:10:35.780Z,99256.96
2022-10-20T11:13:26.156Z,99256.41
2022-10-20T11:15:53.644Z,99257.27
2022-10-20T11:18:44.662Z,99251.07
2022-10-20T11:21:31.886Z,99245.76
2022-10-20T11:24:17.703Z,99232.39
2022-10-20T11:26:51.334Z,99229.44
2022-10-20T11:29:28.454Z,99231.20
2022-10-20T11:32:07.108Z,99231.25
2022-10-20T11:34:50.235Z,99227.47
2022-10-20T11:37:33.286Z,99226.02
2022-10-20T11:40:12.076Z,99225.27
2022-10-20T11:42:57.581Z,99223.95
2022-10-20T11:45:38.331Z,99220.84
2022-10-20T11:48:31.724Z,99219.56
2022-10-20T11:51:30.730Z,99217.95
2022-10-20T11:54:35.604Z,99214.20
2022-10-20T11:57:18.698Z,99207.98
2022-10-20T12:00:00.602Z,99204.02
2022-10-20T12:03:05.234Z,99201.25
2022-10-20T12:06:09.122Z,99192.46
2022-10-20T12:12:20.797Z,99191.17
2022-10-20T12:14:57.667Z,99190.14
2022-10-20T12:17:31.166Z,99184.12
2022-10-20T12:20:22.475Z,99181.34
2022-10-20T12:22:54.752Z,99181.55
2022-10-20T12:25:27.534Z,99178.23
2022-10-20T12:28:22.300Z,99179.41
2022-10-20T12:30:56.114Z,99181.14
2022-10-20T12:33:38.062Z,99177.97
2022-10-20T12:36:16.439Z,99178.95
2022-10-20T12:38:55.041Z,99175.85
2022-10-20T12:41:33.315Z,99176.05
2022-10-20T12:44:05.543Z,99176.98
2022-10-20T12:46:34.196Z,99170.84
2022-10-20T12:49:06.692Z,99169.06
2022-10-20T12:51:50.930Z,99167.17
2022-10-20T12:54:26.773Z,99164.73
2022-10-20T12:56:58.647Z,99168.08
2022-10-20T12:59:30.993Z,99167.64
2022-10-20T13:02:09.930Z,99163.27
2022-10-20T13:05:00.083Z,99166.81
2022-10-20T13:07:48.503Z,99164.02
2022-10-20T13:10:27.084Z,99159.88
2022-10-20T13:13:14.480Z,99157.75
2022-10-20T13:15:48.756Z,99155.85
2022-10-20T13:18:31.572Z,99155.25
2022-10-20T13:21:28.020Z,99154.46
2022-10-20T13:24:11.967Z,99155.72
2022-10-20T13:26:47.525Z,99159.16
2022-10-20T13:29:22.068Z,99155.26
2022-10-20T13:32:03.677Z,99156.82
2022-10-20T13:35:08.894Z,99155.52
2022-10-20T13:37:50.320Z,99155.02
2022-10-20T13:40:30.117Z,99158.27
2022-10-20T13:43:46.759Z,99156.75
2022-10-20T13:46:49.279Z,99152.67
2022-10-20T13:49:42.803Z,99159.48
2022-10-20T13:52:14.191Z,99155.87
2022-10-20T13:54:43.851Z,99155.55
2022-10-20T13:57:27.817Z,99152.88
2022-10-20T13:59:57.328Z,99152.09
2022-10-20T14:02:27.914Z,99143.94
2022-10-20T14:05:13.837Z,99146.52
2022-10-20T14:07:43.839Z,99140.81
2022-10-20T14:10:36.746Z,99134.13
2022-10-20T14:13:07.649Z,99128.71
2022-10-20T14:15:36.177Z,99126.12
2022-10-20T14:18:05.479Z,99127.13
2022-10-20T14:20:34.045Z,99123.00
2022-10-20T14:23:02.760Z,99116.91
2022-10-20T14:25:30.556Z,99109.43
2022-10-20T14:27:58.094Z,99107.80
2022-10-20T14:30:24.937Z,99107.70
2022-10-20T14:32:51.625Z,99104.81
2022-10-20T14:35:42.348Z,99104.33
2022-10-20T14:38:22.140Z,99104.14
2022-10-20T14:40:54.243Z,99107.73
2022-10-20T14:43:32.395Z,99104.37
2022-10-20T14:46:00.842Z,99106.98
2022-10-20T14:48:36.710Z,99107.48
2022-10-20T14:51:29.066Z,99104.17
2022-10-20T14:54:16.446Z,99108.67
2022-10-20T14:56:45.324Z,99104.39
2022-10-20T14:59:14.613Z,99104.30
2022-10-20T15:01:41.320Z,99103.39
2022-10-20T15:04:10.549Z,99100.01
2022-10-20T15:06:37.077Z,99101.41
2022-10-20T15:09:04.499Z,99101.86
2022-10-20T15:11:31.126Z,99095.17
2022-10-20T15:13:59.432Z,99098.73
2022-10-20T15:16:47.123Z,99095.17
2022-10-20T15:19:29.361Z,99093.63
2022-10-20T15:22:09.714Z,99094.62
2022-10-20T15:24:36.425Z,99093.83
2022-10-20T15:27:03.640Z,99088.95
2022-10-20T15:29:30.827Z,99089.40
2022-10-20T15:31:58.181Z,99087.07
2022-10-20T15:34:24.650Z,99088.18
2022-10-20T15:36:51.409Z,99090.86
2022-10-20T15:39:18.255Z,99088.16
2022-10-20T15:41:44.849Z,99086.16
2022-10-20T15:44:20.043Z,99087.79
2022-10-20T15:46:47.003Z,99089.09
2022-10-20T15:49:14.347Z,99088.31
2022-10-20T15:51:43.590Z,99090.87
2022-10-20T15:54:15.867Z,99095.23
2022-10-20T15:56:42.583Z,99093.17
2022-10-20T15:59:09.113Z,99095.92
2022-10-20T16:01:36.616Z,99093.44
2022-10-20T16:04:23.705Z,99097.89
2022-10-20T16:06:50.846Z,99099.27
2022-10-20T16:09:18.136Z,99098.50
2022-10-20T16:11:44.849Z,99091.47
2022-10-20T16:14:12.018Z,99087.04
2022-10-20T16:16:38.644Z,99085.19
2022-10-20T16:19:05.438Z,99084.06
2022-10-20T16:21:33.776Z,99087.04
2022-10-20T16:24:00.622Z,99090.01
2022-10-20T16:26:27.263Z,99093.61
2022-10-20T16:28:53.677Z,99095.19
2022-10-20T16:31:20.245Z,99094.53
2022-10-20T16:33:47.294Z,99095.83
2022-10-20T16:36:15.681Z,99102.13
2022-10-20T16:38:42.910Z,99099.37
2022-10-20T16:41:12.369Z,99103.14
2022-10-20T16:43:40.079Z,99102.05
2022-10-20T16:46:08.306Z,99102.36
2022-10-20T16:48:37.064Z,99104.41
2022-10-20T16:51:09.357Z,99104.63
2022-10-20T16:53:35.821Z,99102.98
2022-10-20T16:56:02.543Z,99101.73
2022-10-20T16:58:29.795Z,99104.58
2022-10-20T17:01:06.558Z,99112.26
2022-10-20T17:03:33.606Z,99117.91
2022-10-20T17:06:03.473Z,99117.97
2022-10-20T17:08:30.446Z,99114.77
2022-10-20T17:11:04.199Z,99116.70
2022-10-20T17:13:31.566Z,99114.76
2022-10-20T17:16:05.556Z,99117.79
2022-10-20T17:18:32.833Z,99114.04
2022-10-20T17:20:59.679Z,99115.27
2022-10-20T17:23:26.325Z,99119.89
2022-10-20T17:25:53.579Z,99122.44
2022-10-20T17:28:20.221Z,99125.35
2022-10-20T17:30:48.093Z,99128.82
2022-10-20T17:33:15.084Z,99126.73
2022-10-20T17:35:47.723Z,99125.58
2022-10-20T17:38:14.263Z,99127.46
2022-10-20T17:40:40.907Z,99124.70
2022-10-20T17:43:07.770Z,99119.50
2022-10-20T17:45:36.282Z,99118.76
2022-10-20T17:48:05.713Z,99119.70
2022-10-20T17:50:32.605Z,99120.13
2022-10-20T17:53:00.475Z,99123.31
2022-10-20T17:55:27.326Z,99123.48
2022-10-20T17:57:54.027Z,99117.98
2022-10-20T18:00:31.741Z,99116.54
2022-10-20T18:03:07.424Z,99110.29
2022-10-20T18:05:36.524Z,99112.08
2022-10-20T18:08:03.080Z,99114.58
2022-10-20T18:10:29.706Z,99113.66
2022-10-20T18:12:56.344Z,99114.49
2022-10-20T18:15:22.989Z,99114.27
2022-10-20T18:17:49.533Z,99110.77
2022-10-20T18:20:16.071Z,99103.63
2022-10-20T18:22:42.508Z,99099.58
2022-10-20T18:25:09.278Z,99101.39
2022-10-20T18:27:35.710Z,99100.80
2022-10-20T18:30:02.235Z,99100.39
2022-10-20T18:32:28.879Z,99104.75
2022-10-20T18:34:55.419Z,99106.04
2022-10-20T18:37:21.858Z,99105.60
2022-10-20T18:39:48.400Z,99109.48
2022-10-20T18:42:14.939Z,99114.20
2022-10-20T18:44:43.118Z,99106.38
2022-10-20T18:47:09.559Z,99107.59
2022-10-20T18:49:36.554Z,99108.96
2022-10-20T18:52:03.252Z,99106.13
2022-10-20T18:54:30.100Z,99105.69
2022-10-20T18:56:56.747Z,99112.26
2022-10-20T18:59:23.288Z,99113.36
2022-10-20T19:01:49.944Z,99120.48
2022-10-20T19:04:16.711Z,99127.92
2022-10-20T19:06:47.667Z,99125.08
2022-10-20T19:09:18.270Z,99125.61
2022-10-20T19:11:45.997Z,99121.00
2022-10-20T19:14:13.806Z,99121.23
2022-10-20T19:16:42.730Z,99122.80
2022-10-20T19:19:10.886Z,99117.52
2022-10-20T19:21:38.337Z,99112.42
2022-10-20T19:24:09.325Z,99108.15
2022-10-20T19:26:42.492Z,99107.48
2022-10-20T19:29:12.058Z,99107.32
2022-10-20T19:31:41.603Z,99103.07
2022-10-20T19:34:12.964Z,99103.27
2022-10-20T19:36:40.452Z,99103.80
2022-10-20T19:39:09.240Z,99102.64
2022-10-20T19:41:36.068Z,99104.73
2022-10-20T19:44:03.528Z,99104.94
2022-10-20T19:46:30.170Z,99107.72
2022-10-20T19:48:56.822Z,99107.55
2022-10-20T19:51:23.465Z,99107.23
2022-10-20T19:53:50.205Z,99107.60
2022-10-20T19:56:17.772Z,99110.55
2022-10-20T19:58:46.686Z,99112.80
2022-10-20T20:01:13.919Z,99112.27
2022-10-20T20:03:40.776Z,99109.55
2022-10-20T20:06:16.415Z,99106.48
2022-10-20T20:08:44.883Z,99105.66
2022-10-20T20:11:12.222Z,99112.34
2022-10-20T20:13:38.627Z,99112.88
2022-10-20T20:16:07.350Z,99109.15
2022-10-20T20:18:36.527Z,99109.50
2022-10-20T20:21:05.300Z,99110.04
2022-10-20T20:23:47.402Z,99110.91
2022-10-20T20:26:19.338Z,99114.00
2022-10-20T20:28:45.815Z,99108.36
2022-10-20T20:31:12.458Z,99111.12
2022-10-20T20:33:39.004Z,99111.13
2022-10-20T20:36:08.223Z,99108.41
2022-10-20T20:38:36.706Z,99106.38
2022-10-20T20:41:06.911Z,99101.92
2022-10-20T20:43:35.128Z,99099.39
2022-10-20T20:46:11.678Z,99102.64
2022-10-20T20:48:38.823Z,99100.10
2022-10-20T20:51:05.670Z,99098.73
2022-10-20T20:56:06.776Z,99095.30
2022-10-20T20:58:33.793Z,99091.56
2022-10-20T21:01:04.280Z,99088.14
2022-10-20T21:03:31.934Z,99089.36
2022-10-20T21:06:06.471Z,99084.92
2022-10-20T21:08:38.379Z,99082.55
2022-10-20T21:11:16.103Z,99079.14
2022-10-20T21:13:43.548Z,99080.52
2022-10-20T21:16:13.179Z,99085.83
2022-10-20T21:18:41.650Z,99081.40
2022-10-20T21:21:14.597Z,99074.23
2022-10-20T21:23:41.801Z,99075.27
2022-10-20T21:26:10.309Z,99074.94
2022-10-20T21:28:37.311Z,99078.36
2022-10-20T21:31:05.843Z,99071.04
2022-10-20T21:33:32.698Z,99065.93
2022-10-20T21:36:04.229Z,99065.94
2022-10-20T21:38:31.602Z,99068.67
2022-10-20T21:41:25.992Z,99061.69
2022-10-20T21:43:55.141Z,99055.20
2022-10-20T21:46:25.161Z,99054.35
2022-10-20T21:48:55.136Z,99049.05
2022-10-20T21:51:22.703Z,99056.07
2022-10-20T21:53:49.905Z,99055.23
2022-10-20T21:56:16.504Z,99052.33
2022-10-20T21:58:43.558Z,99055.40
2022-10-20T22:01:15.921Z,99054.05
2022-10-20T22:03:44.052Z,99043.29
2022-10-20T22:06:12.914Z,99032.88
2022-10-20T22:08:42.666Z,99029.14
2022-10-20T22:11:15.449Z,99030.17
2022-10-20T22:13:42.770Z,99028.97
2022-10-20T22:16:14.329Z,99030.67
2022-10-20T22:18:40.828Z,99030.02
2022-10-20T22:21:12.472Z,99029.16
2022-10-20T22:23:40.128Z,99031.21
2022-10-20T22:26:06.936Z,99032.41
2022-10-20T22:28:33.579Z,99033.77
2022-10-20T22:33:27.771Z,99027.64
2022-10-20T22:35:54.189Z,99025.58
2022-10-20T22:38:20.975Z,99023.70
2022-10-20T22:40:47.823Z,99024.38
2022-10-20T22:43:14.364Z,99023.20
2022-10-20T22:45:40.906Z,99015.70
2022-10-20T22:48:07.964Z,99012.80
2022-10-20T22:50:34.600Z,99013.16
2022-10-20T22:53:01.143Z,99008.53
2022-10-20T22:55:27.595Z,99004.11
2022-10-20T22:57:54.071Z,98998.32
2022-10-20T23:00:20.656Z,98998.49
2022-10-20T23:02:47.205Z,98994.40
2022-10-20T23:05:13.744Z,98993.39
2022-10-20T23:07:40.623Z,98990.14
2022-10-20T23:10:08.320Z,98989.29
2022-10-20T23:12:35.070Z,98991.17
2022-10-20T23:15:02.154Z,98990.84
2022-10-20T23:17:29.003Z,98992.38
2022-10-20T23:19:55.525Z,98989.30
2022-10-20T23:22:22.187Z,98993.40
2022-10-20T23:24:48.653Z,98990.67
2022-10-20T23:27:15.098Z,98986.94
2022-10-20T23:29:41.761Z,98991.52
2022-10-20T23:32:08.656Z,98987.61
2022-10-20T23:37:06.373Z,98979.95
2022-10-20T23:39:32.983Z,98982.33
2022-10-20T23:42:02.308Z,98983.00
2022-10-20T23:44:32.925Z,98978.41
2022-10-20T23:46:59.572Z,98971.42
2022-10-20T23:49:26.103Z,98967.17
2022-10-20T23:51:52.650Z,98966.31
2022-10-20T23:54:19.292Z,98971.42
2022-10-20T23:56:45.726Z,98966.48
2022-10-20T23:59:12.222Z,98968.19
